sensor_id;sensor_type;location;lat;lon;timestamp;pressure;altitude;pressure_sealevel;temperature;humidity
10310;BME280;5200;43.236;27.986;2023-08-06T00:00:54;98910.06;;;22.66;100.00
10310;BME280;5200;43.236;27.986;2023-08-06T00:03:20;98902.34;;;22.69;100.00
10310;BME280;5200;43.236;27.986;2023-08-06T00:05:47;98904.63;;;22.77;100.00
10310;BME280;5200;43.236;27.986;2023-08-06T00:08:14;98904.94;;;22.81;100.00
10310;BME280;5200;43.236;27.986;2023-08-06T00:10:41;98870.09;;;22.64;100.00
10310;BME280;5200;43.236;27.986;2023-08-06T00:13:08;98889.84;;;22.75;100.00
10310;BME280;5200;43.236;27.986;2023-08-06T00:15:35;98860.94;;;22.60;100.00
10310;BME280;5200;43.236;27.986;2023-08-06T00:18:03;98871.66;;;22.60;100.00
10310;BME280;5200;43.236;27.986;2023-08-06T00:20:30;98865.16;;;22.56;100.00
10310;BME280;5200;43.236;27.986;2023-08-06T00:22:57;98872.78;;;22.64;100.00
10310;BME280;5200;43.236;27.986;2023-08-06T00:25:24;98870.44;;;22.51;100.00
10310;BME280;5200;43.236;27.986;2023-08-06T00:27:51;98885.28;;;22.58;100.00
10310;BME280;5200;43.236;27.986;2023-08-06T00:30:17;98857.66;;;22.41;100.00
10310;BME280;5200;43.236;27.986;2023-08-06T00:32:44;98856.28;;;22.38;100.00
10310;BME280;5200;43.236;27.986;2023-08-06T00:35:12;98861.47;;;22.45;100.00
10310;BME280;5200;43.236;27.986;2023-08-06T00:37:39;98858.34;;;22.48;100.00
10310;BME280;5200;43.236;27.986;2023-08-06T00:40:07;98844.81;;;22.43;100.00
10310;BME280;5200;43.236;27.986;2023-08-06T00:42:34;98849.06;;;22.39;100.00
10310;BME280;5200;43.236;27.986;2023-08-06T00:45:01;98835.09;;;22.37;100.00
10310;BME280;5200;43.236;27.986;2023-08-06T00:47:28;98841.09;;;22.27;100.00
10310;BME280;5200;43.236;27.986;2023-08-06T00:49:55;98851.19;;;22.37;100.00
10310;BME280;5200;43.236;27.986;2023-08-06T00:52:23;98861.97;;;22.42;100.00
10310;BME280;5200;43.236;27.986;2023-08-06T00:54:50;98832.50;;;22.25;100.00
10310;BME280;5200;43.236;27.986;2023-08-06T00:57:17;98864.97;;;22.46;100.00
10310;BME280;5200;43.236;27.986;2023-08-06T00:59:45;98866.38;;;22.48;100.00
10310;BME280;5200;43.236;27.986;2023-08-06T01:02:12;98866.69;;;22.52;100.00
10310;BME280;5200;43.236;27.986;2023-08-06T01:04:39;98864.09;;;22.57;100.00
10310;BME280;5200;43.236;27.986;2023-08-06T01:07:28;98847.44;;;22.55;100.00
10310;BME280;5200;43.236;27.986;2023-08-06T01:10:10;98846.47;;;22.61;100.00
10310;BME280;5200;43.236;27.986;2023-08-06T01:12:47;98838.91;;;22.58;100.00
10310;BME280;5200;43.236;27.986;2023-08-06T01:15:19;98843.84;;;22.66;100.00
10310;BME280;5200;43.236;27.986;2023-08-06T01:17:48;98850.53;;;22.64;100.00
10310;BME280;5200;43.236;27.986;2023-08-06T01:20:15;98821.94;;;22.52;100.00
10310;BME280;5200;43.236;27.986;2023-08-06T01:22:43;98843.28;;;22.64;100.00
10310;BME280;5200;43.236;27.986;2023-08-06T01:25:10;98831.69;;;22.58;100.00
10310;BME280;5200;43.236;27.986;2023-08-06T01:27:44;98825.34;;;22.48;100.00
10310;BME280;5200;43.236;27.986;2023-08-06T01:30:16;98819.25;;;22.52;100.00
10310;BME280;5200;43.236;27.986;2023-08-06T01:32:45;98815.69;;;22.47;100.00
10310;BME280;5200;43.236;27.986;2023-08-06T01:35:15;98792.38;;;22.30;100.00
10310;BME280;5200;43.236;27.986;2023-08-06T01:37:44;98792.03;;;22.27;100.00
10310;BME280;5200;43.236;27.986;2023-08-06T01:40:13;98758.25;;;22.09;100.00
10310;BME280;5200;43.236;27.986;2023-08-06T01:42:40;98801.97;;;22.26;100.00
10310;BME280;5200;43.236;27.986;2023-08-06T01:45:08;98789.53;;;22.20;100.00
10310;BME280;5200;43.236;27.986;2023-08-06T01:47:35;98783.47;;;22.25;100.00
10310;BME280;5200;43.236;27.986;2023-08-06T01:50:03;98788.63;;;22.31;100.00
10310;BME280;5200;43.236;27.986;2023-08-06T01:52:30;98749.22;;;22.15;100.00
10310;BME280;5200;43.236;27.986;2023-08-06T01:54:58;98741.53;;;22.19;100.00
10310;BME280;5200;43.236;27.986;2023-08-06T01:57:25;98754.34;;;22.16;100.00
10310;BME280;5200;43.236;27.986;2023-08-06T01:59:52;98755.16;;;22.17;100.00
10310;BME280;5200;43.236;27.986;2023-08-06T02:02:19;98775.97;;;22.27;100.00
10310;BME280;5200;43.236;27.986;2023-08-06T02:04:46;98773.28;;;22.27;100.00
10310;BME280;5200;43.236;27.986;2023-08-06T02:07:13;98755.16;;;22.17;100.00
10310;BME280;5200;43.236;27.986;2023-08-06T02:09:39;98748.19;;;22.16;100.00
10310;BME280;5200;43.236;27.986;2023-08-06T02:12:08;98763.72;;;22.31;100.00
10310;BME280;5200;43.236;27.986;2023-08-06T02:14:35;98771.59;;;22.37;100.00
10310;BME280;5200;43.236;27.986;2023-08-06T02:17:02;98767.94;;;22.44;100.00
10310;BME280;5200;43.236;27.986;2023-08-06T02:19:29;98759.41;;;22.47;100.00
10310;BME280;5200;43.236;27.986;2023-08-06T02:21:56;98750.31;;;22.48;100.00
10310;BME280;5200;43.236;27.986;2023-08-06T02:24:23;98742.19;;;22.43;100.00
10310;BME280;5200;43.236;27.986;2023-08-06T02:26:50;98755.44;;;22.49;100.00
10310;BME280;5200;43.236;27.986;2023-08-06T02:29:22;98755.72;;;22.53;100.00
10310;BME280;5200;43.236;27.986;2023-08-06T02:31:49;98755.19;;;22.51;100.00
10310;BME280;5200;43.236;27.986;2023-08-06T02:34:15;98747.88;;;22.46;100.00
10310;BME280;5200;43.236;27.986;2023-08-06T02:36:42;98736.13;;;22.30;100.00
10310;BME280;5200;43.236;27.986;2023-08-06T02:39:09;98741.16;;;22.27;100.00
10310;BME280;5200;43.236;27.986;2023-08-06T02:41:36;98720.28;;;22.12;100.00
10310;BME280;5200;43.236;27.986;2023-08-06T02:44:03;98731.63;;;22.19;100.00
10310;BME280;5200;43.236;27.986;2023-08-06T02:46:31;98735.47;;;22.23;100.00
10310;BME280;5200;43.236;27.986;2023-08-06T02:48:58;98706.72;;;22.02;100.00
10310;BME280;5200;43.236;27.986;2023-08-06T02:51:25;98712.88;;;22.02;100.00
10310;BME280;5200;43.236;27.986;2023-08-06T02:53:52;98737.47;;;22.16;100.00
10310;BME280;5200;43.236;27.986;2023-08-06T02:56:18;98745.75;;;22.14;100.00
10310;BME280;5200;43.236;27.986;2023-08-06T02:58:46;98748.19;;;22.16;100.00
10310;BME280;5200;43.236;27.986;2023-08-06T03:01:13;98746.44;;;22.22;100.00
10310;BME280;5200;43.236;27.986;2023-08-06T03:03:42;98750.03;;;22.27;100.00
10310;BME280;5200;43.236;27.986;2023-08-06T03:06:08;98758.13;;;22.32;100.00
10310;BME280;5200;43.236;27.986;2023-08-06T03:08:36;98748.56;;;22.36;100.00
10310;BME280;5200;43.236;27.986;2023-08-06T03:11:02;98762.03;;;22.42;100.00
10310;BME280;5200;43.236;27.986;2023-08-06T03:13:29;98735.06;;;22.31;100.00
10310;BME280;5200;43.236;27.986;2023-08-06T03:15:58;98736.34;;;22.46;100.00
10310;BME280;5200;43.236;27.986;2023-08-06T03:18:25;98765.13;;;22.72;100.00
10310;BME280;5200;43.236;27.986;2023-08-06T03:20:54;98754.88;;;22.69;100.00
10310;BME280;5200;43.236;27.986;2023-08-06T03:23:21;98760.66;;;22.78;100.00
10310;BME280;5200;43.236;27.986;2023-08-06T03:25:48;98762.47;;;22.94;100.00
10310;BME280;5200;43.236;27.986;2023-08-06T03:28:15;98773.88;;;23.24;100.00
10310;BME280;5200;43.236;27.986;2023-08-06T03:30:41;98754.69;;;23.37;100.00
10310;BME280;5200;43.236;27.986;2023-08-06T03:33:08;98768.91;;;23.59;100.00
10310;BME280;5200;43.236;27.986;2023-08-06T03:35:35;98766.75;;;23.83;100.00
10310;BME280;5200;43.236;27.986;2023-08-06T03:38:03;98770.47;;;24.10;100.00
10310;BME280;5200;43.236;27.986;2023-08-06T03:40:30;98743.75;;;24.30;100.00
10310;BME280;5200;43.236;27.986;2023-08-06T03:42:57;98759.66;;;24.74;100.00
10310;BME280;5200;43.236;27.986;2023-08-06T03:45:24;98757.69;;;25.12;100.00
10310;BME280;5200;43.236;27.986;2023-08-06T03:47:51;98763.75;;;25.50;100.00
10310;BME280;5200;43.236;27.986;2023-08-06T03:50:18;98762.78;;;25.92;100.00
10310;BME280;5200;43.236;27.986;2023-08-06T03:52:45;98768.69;;;26.40;100.00
10310;BME280;5200;43.236;27.986;2023-08-06T03:55:13;98779.44;;;26.81;100.00
10310;BME280;5200;43.236;27.986;2023-08-06T03:57:40;98784.22;;;27.05;100.00
10310;BME280;5200;43.236;27.986;2023-08-06T04:00:08;98770.72;;;26.99;100.00
10310;BME280;5200;43.236;27.986;2023-08-06T04:02:35;98758.59;;;26.97;100.00
10310;BME280;5200;43.236;27.986;2023-08-06T04:05:01;98759.94;;;26.99;100.00
10310;BME280;5200;43.236;27.986;2023-08-06T04:07:28;98756.63;;;27.18;100.00
10310;BME280;5200;43.236;27.986;2023-08-06T04:09:57;98759.19;;;27.49;100.00
10310;BME280;5200;43.236;27.986;2023-08-06T04:12:26;98759.84;;;27.75;100.00
10310;BME280;5200;43.236;27.986;2023-08-06T04:14:54;98750.28;;;27.93;100.00
10310;BME280;5200;43.236;27.986;2023-08-06T04:17:21;98748.59;;;28.02;100.00
10310;BME280;5200;43.236;27.986;2023-08-06T04:19:50;98745.38;;;28.00;100.00
10310;BME280;5200;43.236;27.986;2023-08-06T04:22:17;98732.06;;;28.09;100.00
10310;BME280;5200;43.236;27.986;2023-08-06T04:24:44;98736.78;;;28.22;100.00
10310;BME280;5200;43.236;27.986;2023-08-06T04:27:12;98734.75;;;28.38;100.00
10310;BME280;5200;43.236;27.986;2023-08-06T04:29:40;98731.34;;;28.56;100.00
10310;BME280;5200;43.236;27.986;2023-08-06T04:32:08;98726.84;;;28.71;100.00
10310;BME280;5200;43.236;27.986;2023-08-06T04:34:36;98728.50;;;28.72;100.00
10310;BME280;5200;43.236;27.986;2023-08-06T04:37:04;98730.59;;;28.45;100.00
10310;BME280;5200;43.236;27.986;2023-08-06T04:39:31;98724.34;;;28.55;100.00
10310;BME280;5200;43.236;27.986;2023-08-06T04:41:58;98715.44;;;28.74;100.00
10310;BME280;5200;43.236;27.986;2023-08-06T04:44:25;98714.13;;;28.95;100.00
10310;BME280;5200;43.236;27.986;2023-08-06T04:46:53;98708.19;;;29.17;100.00
10310;BME280;5200;43.236;27.986;2023-08-06T04:49:20;98703.66;;;29.32;100.00
10310;BME280;5200;43.236;27.986;2023-08-06T04:51:47;98720.03;;;29.59;100.00
10310;BME280;5200;43.236;27.986;2023-08-06T04:54:14;98713.38;;;29.89;100.00
10310;BME280;5200;43.236;27.986;2023-08-06T04:56:41;98711.59;;;29.99;100.00
10310;BME280;5200;43.236;27.986;2023-08-06T04:59:08;98695.34;;;29.61;100.00
10310;BME280;5200;43.236;27.986;2023-08-06T05:01:35;98692.59;;;29.28;100.00
10310;BME280;5200;43.236;27.986;2023-08-06T05:04:03;98683.13;;;29.44;100.00
10310;BME280;5200;43.236;27.986;2023-08-06T05:06:30;98683.59;;;29.70;100.00
10310;BME280;5200;43.236;27.986;2023-08-06T05:08:57;98692.88;;;29.83;100.00
10310;BME280;5200;43.236;27.986;2023-08-06T05:11:24;98689.50;;;29.91;100.00
10310;BME280;5200;43.236;27.986;2023-08-06T05:13:51;98685.75;;;29.87;100.00
10310;BME280;5200;43.236;27.986;2023-08-06T05:16:17;98686.09;;;30.00;100.00
10310;BME280;5200;43.236;27.986;2023-08-06T05:18:44;98686.88;;;30.00;100.00
10310;BME280;5200;43.236;27.986;2023-08-06T05:21:12;98685.66;;;29.92;100.00
10310;BME280;5200;43.236;27.986;2023-08-06T05:23:39;98674.66;;;29.32;100.00
10310;BME280;5200;43.236;27.986;2023-08-06T05:26:06;98676.38;;;29.04;100.00
10310;BME280;5200;43.236;27.986;2023-08-06T05:28:33;98667.66;;;28.88;100.00
10310;BME280;5200;43.236;27.986;2023-08-06T05:31:05;98669.69;;;29.20;100.00
10310;BME280;5200;43.236;27.986;2023-08-06T05:33:33;98656.78;;;29.50;100.00
10310;BME280;5200;43.236;27.986;2023-08-06T05:36:00;98667.50;;;30.07;100.00
10310;BME280;5200;43.236;27.986;2023-08-06T05:38:29;98666.78;;;30.34;100.00
10310;BME280;5200;43.236;27.986;2023-08-06T05:40:56;98676.53;;;30.49;100.00
10310;BME280;5200;43.236;27.986;2023-08-06T05:43:23;98675.91;;;30.52;99.85
10310;BME280;5200;43.236;27.986;2023-08-06T05:45:50;98673.31;;;30.61;100.00
10310;BME280;5200;43.236;27.986;2023-08-06T05:48:17;98651.78;;;30.92;99.51
10310;BME280;5200;43.236;27.986;2023-08-06T05:50:44;98657.66;;;31.22;99.18
10310;BME280;5200;43.236;27.986;2023-08-06T05:53:11;98662.72;;;31.37;94.83
10310;BME280;5200;43.236;27.986;2023-08-06T05:55:40;98656.91;;;31.30;96.11
10310;BME280;5200;43.236;27.986;2023-08-06T05:58:06;98652.31;;;31.30;95.87
10310;BME280;5200;43.236;27.986;2023-08-06T06:00:33;98660.19;;;31.54;96.73
10310;BME280;5200;43.236;27.986;2023-08-06T06:03:00;98648.81;;;31.52;95.76
10310;BME280;5200;43.236;27.986;2023-08-06T06:05:28;98649.13;;;31.14;98.38
10310;BME280;5200;43.236;27.986;2023-08-06T06:07:55;98656.91;;;30.80;99.89
10310;BME280;5200;43.236;27.986;2023-08-06T06:10:21;98653.41;;;30.38;100.00
10310;BME280;5200;43.236;27.986;2023-08-06T06:12:50;98643.31;;;29.97;100.00
10310;BME280;5200;43.236;27.986;2023-08-06T06:15:16;98655.81;;;29.60;100.00
10310;BME280;5200;43.236;27.986;2023-08-06T06:17:43;98643.38;;;29.59;100.00
10310;BME280;5200;43.236;27.986;2023-08-06T06:20:10;98650.09;;;29.80;100.00
10310;BME280;5200;43.236;27.986;2023-08-06T06:22:37;98660.56;;;30.01;100.00
10310;BME280;5200;43.236;27.986;2023-08-06T06:25:05;98660.75;;;29.90;100.00
10310;BME280;5200;43.236;27.986;2023-08-06T06:27:32;98660.44;;;29.59;100.00
10310;BME280;5200;43.236;27.986;2023-08-06T06:30:01;98663.81;;;29.32;100.00
10310;BME280;5200;43.236;27.986;2023-08-06T06:32:28;98658.81;;;29.01;100.00
10310;BME280;5200;43.236;27.986;2023-08-06T06:34:55;98654.59;;;29.33;100.00
10310;BME280;5200;43.236;27.986;2023-08-06T06:37:21;98644.59;;;29.66;100.00
10310;BME280;5200;43.236;27.986;2023-08-06T06:39:48;98646.38;;;29.57;100.00
10310;BME280;5200;43.236;27.986;2023-08-06T06:42:15;98652.97;;;29.70;100.00
10310;BME280;5200;43.236;27.986;2023-08-06T06:44:42;98657.94;;;29.96;100.00
10310;BME280;5200;43.236;27.986;2023-08-06T06:47:10;98670.56;;;29.86;100.00
10310;BME280;5200;43.236;27.986;2023-08-06T06:49:37;98664.72;;;29.79;100.00
10310;BME280;5200;43.236;27.986;2023-08-06T06:52:05;98665.00;;;29.97;100.00
10310;BME280;5200;43.236;27.986;2023-08-06T06:54:32;98668.16;;;30.18;100.00
10310;BME280;5200;43.236;27.986;2023-08-06T06:56:59;98665.69;;;30.49;100.00
10310;BME280;5200;43.236;27.986;2023-08-06T06:59:25;98663.63;;;30.82;99.28
10310;BME280;5200;43.236;27.986;2023-08-06T07:01:52;98661.44;;;30.70;98.51
10310;BME280;5200;43.236;27.986;2023-08-06T07:04:20;98655.41;;;30.73;100.00
10310;BME280;5200;43.236;27.986;2023-08-06T07:06:47;98654.03;;;30.62;100.00
10310;BME280;5200;43.236;27.986;2023-08-06T07:09:14;98644.34;;;30.70;100.00
10310;BME280;5200;43.236;27.986;2023-08-06T07:11:41;98640.41;;;30.76;98.53
10310;BME280;5200;43.236;27.986;2023-08-06T07:14:09;98648.56;;;30.21;100.00
10310;BME280;5200;43.236;27.986;2023-08-06T07:16:36;98647.28;;;29.85;100.00
10310;BME280;5200;43.236;27.986;2023-08-06T07:19:03;98649.91;;;29.90;100.00
10310;BME280;5200;43.236;27.986;2023-08-06T07:21:32;98645.84;;;30.21;100.00
10310;BME280;5200;43.236;27.986;2023-08-06T07:23:59;98656.13;;;30.51;100.00
10310;BME280;5200;43.236;27.986;2023-08-06T07:26:26;98641.94;;;30.68;99.11
10310;BME280;5200;43.236;27.986;2023-08-06T07:28:52;98647.34;;;30.96;95.69
10310;BME280;5200;43.236;27.986;2023-08-06T07:31:19;98642.69;;;31.10;95.13
10310;BME280;5200;43.236;27.986;2023-08-06T07:33:46;98640.44;;;31.26;92.99
10310;BME280;5200;43.236;27.986;2023-08-06T07:36:14;98639.09;;;31.60;91.79
10310;BME280;5200;43.236;27.986;2023-08-06T07:38:42;98647.06;;;31.79;91.63
10310;BME280;5200;43.236;27.986;2023-08-06T07:41:09;98620.78;;;31.66;92.64
10310;BME280;5200;43.236;27.986;2023-08-06T07:43:36;98634.81;;;31.90;90.40
10310;BME280;5200;43.236;27.986;2023-08-06T07:46:03;98642.59;;;32.06;89.90
10310;BME280;5200;43.236;27.986;2023-08-06T07:48:30;98639.50;;;31.98;90.71
10310;BME280;5200;43.236;27.986;2023-08-06T07:50:57;98649.75;;;31.70;92.95
10310;BME280;5200;43.236;27.986;2023-08-06T07:53:25;98637.50;;;31.59;94.71
10310;BME280;5200;43.236;27.986;2023-08-06T07:55:56;98656.47;;;31.73;92.51
10310;BME280;5200;43.236;27.986;2023-08-06T07:58:24;98662.13;;;31.85;92.12
10310;BME280;5200;43.236;27.986;2023-08-06T08:00:51;98665.78;;;32.03;91.26
10310;BME280;5200;43.236;27.986;2023-08-06T08:03:18;98664.72;;;31.90;91.35
10310;BME280;5200;43.236;27.986;2023-08-06T08:05:45;98660.59;;;31.48;92.87
10310;BME280;5200;43.236;27.986;2023-08-06T08:08:12;98663.41;;;31.06;95.68
10310;BME280;5200;43.236;27.986;2023-08-06T08:10:38;98660.81;;;31.01;96.46
10310;BME280;5200;43.236;27.986;2023-08-06T08:13:07;98662.16;;;31.26;96.00
10310;BME280;5200;43.236;27.986;2023-08-06T08:15:34;98657.72;;;31.30;96.23
10310;BME280;5200;43.236;27.986;2023-08-06T08:18:01;98666.88;;;30.98;97.06
10310;BME280;5200;43.236;27.986;2023-08-06T08:20:28;98667.88;;;30.74;98.91
10310;BME280;5200;43.236;27.986;2023-08-06T08:22:58;98667.09;;;30.60;100.00
10310;BME280;5200;43.236;27.986;2023-08-06T08:25:26;98677.34;;;30.63;100.00
10310;BME280;5200;43.236;27.986;2023-08-06T08:27:53;98665.47;;;30.59;100.00
10310;BME280;5200;43.236;27.986;2023-08-06T08:30:22;98661.63;;;30.88;100.00
10310;BME280;5200;43.236;27.986;2023-08-06T08:32:50;98652.31;;;31.30;99.37
10310;BME280;5200;43.236;27.986;2023-08-06T08:35:17;98655.91;;;31.62;96.67
10310;BME280;5200;43.236;27.986;2023-08-06T08:37:44;98659.59;;;31.89;93.78
10310;BME280;5200;43.236;27.986;2023-08-06T08:40:11;98651.75;;;31.87;93.89
10310;BME280;5200;43.236;27.986;2023-08-06T08:42:38;98651.38;;;32.03;92.95
10310;BME280;5200;43.236;27.986;2023-08-06T08:45:07;98631.69;;;31.97;92.98
10310;BME280;5200;43.236;27.986;2023-08-06T08:47:40;98630.16;;;32.13;91.45
10310;BME280;5200;43.236;27.986;2023-08-06T08:50:08;98617.00;;;32.07;90.18
10310;BME280;5200;43.236;27.986;2023-08-06T08:52:36;98626.38;;;31.69;91.12
10310;BME280;5200;43.236;27.986;2023-08-06T08:55:05;98623.84;;;31.73;93.63
10310;BME280;5200;43.236;27.986;2023-08-06T08:57:33;98618.91;;;31.52;93.21
10310;BME280;5200;43.236;27.986;2023-08-06T09:00:00;98618.47;;;31.59;94.65
10310;BME280;5200;43.236;27.986;2023-08-06T09:02:28;98626.06;;;31.48;92.67
10310;BME280;5200;43.236;27.986;2023-08-06T09:04:58;98617.03;;;31.39;94.28
10310;BME280;5200;43.236;27.986;2023-08-06T09:07:29;98622.25;;;31.49;93.76
10310;BME280;5200;43.236;27.986;2023-08-06T09:10:01;98627.72;;;31.58;93.20
10310;BME280;5200;43.236;27.986;2023-08-06T09:12:29;98625.63;;;31.77;92.09
10310;BME280;5200;43.236;27.986;2023-08-06T09:14:56;98632.53;;;32.15;92.19
10310;BME280;5200;43.236;27.986;2023-08-06T09:17:23;98632.66;;;32.50;91.48
10310;BME280;5200;43.236;27.986;2023-08-06T09:19:49;98621.72;;;32.72;90.83
10310;BME280;5200;43.236;27.986;2023-08-06T09:22:18;98621.22;;;32.70;89.42
10310;BME280;5200;43.236;27.986;2023-08-06T09:24:45;98623.69;;;32.40;89.23
10310;BME280;5200;43.236;27.986;2023-08-06T09:30:35;98598.22;;;32.45;88.63
10310;BME280;5200;43.236;27.986;2023-08-06T09:33:02;98593.22;;;31.90;88.87
10310;BME280;5200;43.236;27.986;2023-08-06T09:35:30;98592.31;;;31.41;93.29
10310;BME280;5200;43.236;27.986;2023-08-06T09:38:05;98585.59;;;31.24;93.74
10310;BME280;5200;43.236;27.986;2023-08-06T09:40:34;98588.31;;;31.24;92.67
10310;BME280;5200;43.236;27.986;2023-08-06T09:43:01;98577.63;;;31.28;94.45
10310;BME280;5200;43.236;27.986;2023-08-06T09:45:32;98581.31;;;30.87;96.28
10310;BME280;5200;43.236;27.986;2023-08-06T09:48:00;98587.63;;;30.82;96.80
10310;BME280;5200;43.236;27.986;2023-08-06T09:50:29;98581.84;;;30.61;97.34
10310;BME280;5200;43.236;27.986;2023-08-06T09:52:57;98580.03;;;30.57;99.53
10310;BME280;5200;43.236;27.986;2023-08-06T09:55:26;98574.78;;;30.74;100.00
10310;BME280;5200;43.236;27.986;2023-08-06T09:57:54;98583.06;;;30.55;99.17
10310;BME280;5200;43.236;27.986;2023-08-06T10:00:21;98584.97;;;30.41;99.40
10310;BME280;5200;43.236;27.986;2023-08-06T10:02:49;98583.59;;;30.43;100.00
10310;BME280;5200;43.236;27.986;2023-08-06T10:05:20;98582.84;;;30.65;100.00
10310;BME280;5200;43.236;27.986;2023-08-06T10:07:48;98578.69;;;30.95;97.86
10310;BME280;5200;43.236;27.986;2023-08-06T10:10:16;98576.72;;;31.10;96.42
10310;BME280;5200;43.236;27.986;2023-08-06T10:12:47;98569.84;;;31.12;94.65
10310;BME280;5200;43.236;27.986;2023-08-06T10:15:17;98569.47;;;31.05;93.51
10310;BME280;5200;43.236;27.986;2023-08-06T10:17:47;98572.13;;;30.83;95.51
10310;BME280;5200;43.236;27.986;2023-08-06T10:20:15;98565.22;;;30.76;96.44
10310;BME280;5200;43.236;27.986;2023-08-06T10:22:43;98559.25;;;31.02;96.66
10310;BME280;5200;43.236;27.986;2023-08-06T10:25:10;98549.97;;;31.03;96.30
10310;BME280;5200;43.236;27.986;2023-08-06T10:27:40;98549.69;;;31.05;95.82
10310;BME280;5200;43.236;27.986;2023-08-06T10:30:26;98529.84;;;31.04;95.78
10310;BME280;5200;43.236;27.986;2023-08-06T10:32:54;98541.16;;;30.98;96.64
10310;BME280;5200;43.236;27.986;2023-08-06T10:35:30;98531.59;;;30.50;98.36
10310;BME280;5200;43.236;27.986;2023-08-06T10:38:04;98542.91;;;30.29;100.00
10310;BME280;5200;43.236;27.986;2023-08-06T10:40:31;98532.22;;;30.19;100.00
10310;BME280;5200;43.236;27.986;2023-08-06T10:42:59;98541.06;;;30.25;100.00
10310;BME280;5200;43.236;27.986;2023-08-06T10:45:28;98534.25;;;30.00;100.00
10310;BME280;5200;43.236;27.986;2023-08-06T10:47:56;98543.28;;;30.09;100.00
10310;BME280;5200;43.236;27.986;2023-08-06T10:50:23;98533.63;;;30.03;99.51
10310;BME280;5200;43.236;27.986;2023-08-06T10:52:51;98525.72;;;29.92;100.00
10310;BME280;5200;43.236;27.986;2023-08-06T10:55:22;98531.34;;;29.82;100.00
10310;BME280;5200;43.236;27.986;2023-08-06T10:57:52;98533.03;;;29.92;100.00
10310;BME280;5200;43.236;27.986;2023-08-06T11:00:20;98517.75;;;29.96;100.00
10310;BME280;5200;43.236;27.986;2023-08-06T11:02:49;98528.53;;;30.15;100.00
10310;BME280;5200;43.236;27.986;2023-08-06T11:05:17;98528.81;;;30.00;100.00
10310;BME280;5200;43.236;27.986;2023-08-06T11:07:44;98520.16;;;29.70;100.00
10310;BME280;5200;43.236;27.986;2023-08-06T11:10:12;98528.84;;;29.53;100.00
10310;BME280;5200;43.236;27.986;2023-08-06T11:12:40;98513.59;;;29.11;100.00
10310;BME280;5200;43.236;27.986;2023-08-06T11:15:20;98531.47;;;29.06;100.00
10310;BME280;5200;43.236;27.986;2023-08-06T11:17:51;98548.38;;;29.36;100.00
10310;BME280;5200;43.236;27.986;2023-08-06T11:20:20;98529.22;;;29.46;100.00
10310;BME280;5200;43.236;27.986;2023-08-06T11:22:48;98524.34;;;29.62;100.00
10310;BME280;5200;43.236;27.986;2023-08-06T11:32:07;98530.25;;;28.99;100.00
10310;BME280;5200;43.236;27.986;2023-08-06T11:34:36;98514.53;;;28.44;100.00
10310;BME280;5200;43.236;27.986;2023-08-06T11:37:03;98514.16;;;28.32;100.00
10310;BME280;5200;43.236;27.986;2023-08-06T11:39:32;98517.97;;;28.07;100.00
10310;BME280;5200;43.236;27.986;2023-08-06T11:41:59;98489.78;;;28.13;100.00
10310;BME280;5200;43.236;27.986;2023-08-06T11:44:30;98478.06;;;28.60;100.00
10310;BME280;5200;43.236;27.986;2023-08-06T11:46:59;98466.91;;;28.43;100.00
10310;BME280;5200;43.236;27.986;2023-08-06T11:49:45;98501.00;;;28.44;100.00
10310;BME280;5200;43.236;27.986;2023-08-06T11:52:16;98526.63;;;28.71;100.00
10310;BME280;5200;43.236;27.986;2023-08-06T11:54:45;98530.53;;;28.97;100.00
10310;BME280;5200;43.236;27.986;2023-08-06T11:57:12;98512.28;;;28.89;100.00
10310;BME280;5200;43.236;27.986;2023-08-06T11:59:39;98526.03;;;28.74;100.00
10310;BME280;5200;43.236;27.986;2023-08-06T12:02:09;98523.19;;;28.41;100.00
10310;BME280;5200;43.236;27.986;2023-08-06T12:05:00;98560.88;;;28.13;100.00
10310;BME280;5200;43.236;27.986;2023-08-06T12:07:30;98644.09;;;27.92;100.00
10310;BME280;5200;43.236;27.986;2023-08-06T12:09:57;98645.06;;;27.67;100.00
10310;BME280;5200;43.236;27.986;2023-08-06T12:12:25;98629.28;;;27.50;100.00
10310;BME280;5200;43.236;27.986;2023-08-06T12:14:51;98621.28;;;27.69;100.00
10310;BME280;5200;43.236;27.986;2023-08-06T12:17:18;98594.34;;;28.17;100.00
10310;BME280;5200;43.236;27.986;2023-08-06T12:19:45;98600.16;;;28.54;100.00
10310;BME280;5200;43.236;27.986;2023-08-06T12:22:14;98588.06;;;28.89;100.00
10310;BME280;5200;43.236;27.986;2023-08-06T12:24:42;98594.16;;;29.19;100.00
10310;BME280;5200;43.236;27.986;2023-08-06T12:27:09;98612.34;;;29.32;99.07
10310;BME280;5200;43.236;27.986;2023-08-06T12:29:40;98603.88;;;29.20;95.89
10310;BME280;5200;43.236;27.986;2023-08-06T12:32:07;98578.56;;;29.11;94.35
10310;BME280;5200;43.236;27.986;2023-08-06T12:34:34;98562.59;;;28.90;94.24
10310;BME280;5200;43.236;27.986;2023-08-06T12:37:02;98560.84;;;28.80;95.00
10310;BME280;5200;43.236;27.986;2023-08-06T12:39:30;98580.59;;;28.81;94.58
10310;BME280;5200;43.236;27.986;2023-08-06T12:41:58;98591.56;;;28.71;94.88
10310;BME280;5200;43.236;27.986;2023-08-06T12:44:25;98577.59;;;28.63;94.16
10310;BME280;5200;43.236;27.986;2023-08-06T12:46:52;98565.00;;;28.54;95.13
10310;BME280;5200;43.236;27.986;2023-08-06T12:49:19;98576.09;;;28.28;96.17
10310;BME280;5200;43.236;27.986;2023-08-06T12:51:47;98539.47;;;27.93;100.00
10310;BME280;5200;43.236;27.986;2023-08-06T12:54:14;98560.75;;;27.70;100.00
10310;BME280;5200;43.236;27.986;2023-08-06T12:56:42;98570.81;;;27.30;100.00
10310;BME280;5200;43.236;27.986;2023-08-06T12:59:09;98592.59;;;27.05;100.00
10310;BME280;5200;43.236;27.986;2023-08-06T13:01:37;98633.69;;;26.91;100.00
10310;BME280;5200;43.236;27.986;2023-08-06T13:04:04;98637.50;;;26.80;100.00
10310;BME280;5200;43.236;27.986;2023-08-06T13:06:31;98641.34;;;26.69;100.00